createdAt,value
2022-10-09T00:00:48.061Z,102149.56
2022-10-09T00:03:17.329Z,102147.91
2022-10-09T00:05:45.444Z,102150.16
2022-10-09T00:08:11.965Z,102148.72
2022-10-09T00:10:43.471Z,102151.78
2022-10-09T00:13:11.625Z,102155.56
2022-10-09T00:15:39.699Z,102154.88
2022-10-09T00:18:07.245Z,102152.94
2022-10-09T00:20:40.892Z,102156.69
2022-10-09T00:23:07.191Z,102156.00
2022-10-09T00:25:34.395Z,102155.84
2022-10-09T00:28:00.941Z,102159.13
2022-10-09T00:30:27.467Z,102160.00
2022-10-09T00:32:54.527Z,102163.91
2022-10-09T00:35:21.528Z,102161.66
2022-10-09T00:37:48.641Z,102167.63
2022-10-09T00:40:16.145Z,102170.41
2022-10-09T00:42:45.430Z,102172.09
2022-10-09T00:45:20.576Z,102165.41
2022-10-09T00:47:50.719Z,102171.00
2022-10-09T00:50:29.138Z,102173.03
2022-10-09T00:52:59.499Z,102170.50
2022-10-09T00:55:27.894Z,102171.91
2022-10-09T00:57:55.489Z,102172.59
2022-10-09T01:00:22.475Z,102172.09
2022-10-09T01:02:49.194Z,102172.66
2022-10-09T01:05:16.216Z,102165.09
2022-10-09T01:07:49.619Z,102170.56
2022-10-09T01:10:23.618Z,102170.13
2022-10-09T01:13:11.762Z,102171.50
2022-10-09T01:15:44.664Z,102175.66
2022-10-09T01:18:21.635Z,102172.59
2022-10-09T01:21:14.184Z,102176.78
2022-10-09T01:24:02.106Z,102176.91
2022-10-09T01:26:35.503Z,102164.78
2022-10-09T01:29:06.712Z,102165.75
2022-10-09T01:31:37.530Z,102167.81
2022-10-09T01:34:04.053Z,102161.38
2022-10-09T01:36:31.051Z,102168.69
2022-10-09T01:39:01.779Z,102161.16
2022-10-09T01:41:28.443Z,102167.94
2022-10-09T01:43:54.898Z,102171.13
2022-10-09T01:46:32.127Z,102164.84
2022-10-09T01:49:23.792Z,102171.41
2022-10-09T01:51:57.491Z,102168.25
2022-10-09T01:54:36.736Z,102161.94
2022-10-09T01:57:05.527Z,102168.44
2022-10-09T01:59:34.530Z,102175.03
2022-10-09T02:02:01.165Z,102174.16
2022-10-09T02:04:30.121Z,102175.59
2022-10-09T02:06:56.982Z,102178.66
2022-10-09T02:09:24.107Z,102182.47
2022-10-09T02:11:53.577Z,102187.81
2022-10-09T02:14:20.300Z,102195.22
2022-10-09T02:16:48.411Z,102197.06
2022-10-09T02:19:28.559Z,102197.81
2022-10-09T02:22:08.346Z,102198.13
2022-10-09T02:24:37.675Z,102200.75
2022-10-09T02:27:04.575Z,102203.09
2022-10-09T02:29:31.025Z,102204.28
2022-10-09T02:31:57.510Z,102208.78
2022-10-09T02:34:24.006Z,102202.31
2022-10-09T02:36:50.643Z,102203.09
2022-10-09T02:39:17.443Z,102203.31
2022-10-09T02:41:43.894Z,102209.94
2022-10-09T02:44:10.358Z,102216.63
2022-10-09T02:46:38.318Z,102207.81
2022-10-09T02:49:05.543Z,102211.06
2022-10-09T02:51:31.991Z,102209.16
2022-10-09T02:53:59.650Z,102206.75
2022-10-09T02:56:26.497Z,102202.84
2022-10-09T02:58:52.947Z,102204.41
2022-10-09T03:01:19.549Z,102205.31
2022-10-09T03:03:46.516Z,102207.25
2022-10-09T03:06:14.662Z,102209.50
2022-10-09T03:08:43.581Z,102207.28
2022-10-09T03:11:10.770Z,102208.44
2022-10-09T03:13:39.472Z,102198.97
2022-10-09T03:16:07.109Z,102208.38
2022-10-09T03:18:34.018Z,102206.03
2022-10-09T03:21:00.493Z,102208.50
2022-10-09T03:23:27.205Z,102212.84
2022-10-09T03:25:57.757Z,102201.56
2022-10-09T03:28:24.998Z,102213.38
2022-10-09T03:30:52.095Z,102206.09
2022-10-09T03:33:18.685Z,102207.03
2022-10-09T03:35:46.189Z,102207.19
2022-10-09T03:38:13.262Z,102215.25
2022-10-09T03:40:40.023Z,102209.44
2022-10-09T03:43:06.530Z,102216.00
2022-10-09T03:45:33.015Z,102221.50
2022-10-09T03:47:59.491Z,102213.81
2022-10-09T03:50:25.965Z,102221.44
2022-10-09T03:52:52.434Z,102218.06
2022-10-09T03:55:18.871Z,102220.75
2022-10-09T03:57:45.343Z,102218.72
2022-10-09T04:00:12.378Z,102230.13
2022-10-09T04:02:38.908Z,102221.66
2022-10-09T04:05:06.056Z,102222.75
2022-10-09T04:07:32.704Z,102232.53
2022-10-09T04:09:59.163Z,102232.53
2022-10-09T04:12:25.625Z,102231.06
2022-10-09T04:14:52.123Z,102237.88
2022-10-09T04:17:18.630Z,102227.56
2022-10-09T04:19:45.075Z,102242.81
2022-10-09T04:22:11.541Z,102238.75
2022-10-09T04:24:38.007Z,102244.66
2022-10-09T04:27:04.465Z,102247.47
2022-10-09T04:29:30.908Z,102243.75
2022-10-09T04:31:57.406Z,102239.38
2022-10-09T04:34:23.943Z,102232.94
2022-10-09T04:36:50.428Z,102238.94
2022-10-09T04:39:16.881Z,102229.78
2022-10-09T04:41:43.346Z,102233.31
2022-10-09T04:44:09.965Z,102237.13
2022-10-09T04:46:37.396Z,102238.84
2022-10-09T04:49:03.855Z,102243.84
2022-10-09T04:51:30.319Z,102239.06
2022-10-09T04:54:00.421Z,102245.78
2022-10-09T04:56:27.288Z,102239.19
2022-10-09T04:58:53.735Z,102247.94
2022-10-09T05:01:22.810Z,102244.72
2022-10-09T05:03:49.825Z,102242.09
2022-10-09T05:06:16.648Z,102243.97
2022-10-09T05:08:43.365Z,102249.59
2022-10-09T05:11:15.282Z,102244.00
2022-10-09T05:13:45.044Z,102246.97
2022-10-09T05:16:14.577Z,102247.47
2022-10-09T05:18:43.055Z,102247.34
2022-10-09T05:21:10.026Z,102249.88
2022-10-09T05:23:36.490Z,102256.72
2022-10-09T05:26:05.912Z,102267.25
2022-10-09T05:28:32.980Z,102266.66
2022-10-09T05:30:59.629Z,102269.78
2022-10-09T05:33:26.168Z,102263.53
2022-10-09T05:35:53.435Z,102266.16
2022-10-09T05:38:20.456Z,102263.53
2022-10-09T05:41:06.679Z,102253.59
2022-10-09T05:43:35.428Z,102263.41
2022-10-09T05:46:10.319Z,102268.44
2022-10-09T05:48:37.849Z,102266.63
2022-10-09T05:51:14.038Z,102271.75
2022-10-09T05:53:42.196Z,102273.03
2022-10-09T05:56:23.045Z,102274.66
2022-10-09T05:58:56.750Z,102276.13
2022-10-09T06:01:24.361Z,102275.94
2022-10-09T06:03:55.664Z,102278.13
2022-10-09T06:06:23.679Z,102268.50
2022-10-09T06:08:50.155Z,102278.28
2022-10-09T06:11:20.506Z,102264.94
2022-10-09T06:13:47.277Z,102270.69
2022-10-09T06:16:15.408Z,102276.47
2022-10-09T06:18:48.094Z,102270.91
2022-10-09T06:21:16.110Z,102274.81
2022-10-09T06:23:42.671Z,102275.47
2022-10-09T06:26:13.476Z,102267.59
2022-10-09T06:28:40.520Z,102280.19
2022-10-09T06:31:16.049Z,102275.25
2022-10-09T06:33:44.287Z,102271.63
2022-10-09T06:36:22.041Z,102265.31
2022-10-09T06:38:48.711Z,102271.72
2022-10-09T06:41:18.268Z,102279.81
2022-10-09T06:43:52.942Z,102281.09
2022-10-09T06:46:20.668Z,102280.13
2022-10-09T06:48:48.682Z,102280.09
2022-10-09T06:51:18.490Z,102284.75
2022-10-09T06:53:47.799Z,102289.59
2022-10-09T06:56:15.278Z,102289.47
2022-10-09T06:58:43.220Z,102298.41
2022-10-09T07:01:16.706Z,102285.69
2022-10-09T07:03:45.547Z,102297.53
2022-10-09T07:06:18.950Z,102300.19
2022-10-09T07:08:48.389Z,102293.81
2022-10-09T07:11:18.812Z,102292.59
2022-10-09T07:13:47.129Z,102298.03
2022-10-09T07:16:13.759Z,102295.94
2022-10-09T07:18:40.384Z,102297.34
2022-10-09T07:21:08.615Z,102292.97
2022-10-09T07:23:35.843Z,102302.41
2022-10-09T07:26:08.026Z,102298.09
2022-10-09T07:28:34.552Z,102308.84
2022-10-09T07:31:05.523Z,102309.09
2022-10-09T07:33:32.197Z,102318.19
2022-10-09T07:36:01.036Z,102313.97
2022-10-09T07:38:28.073Z,102317.50
2022-10-09T07:40:55.151Z,102330.91
2022-10-09T07:43:22.624Z,102324.63
2022-10-09T07:45:49.144Z,102331.44
2022-10-09T07:48:16.127Z,102320.41
2022-10-09T07:50:42.683Z,102335.50
2022-10-09T07:53:09.772Z,102337.41
2022-10-09T07:55:36.478Z,102340.97
2022-10-09T07:58:03.462Z,102342.09
2022-10-09T08:00:29.915Z,102340.47
2022-10-09T08:02:56.414Z,102352.31
2022-10-09T08:05:23.151Z,102343.78
2022-10-09T08:07:49.734Z,102349.19
2022-10-09T08:10:16.308Z,102339.75
2022-10-09T08:12:43.112Z,102339.38
2022-10-09T08:15:09.628Z,102341.75
2022-10-09T08:17:36.652Z,102347.38
2022-10-09T08:20:03.636Z,102343.50
2022-10-09T08:22:30.150Z,102341.84
2022-10-09T08:24:56.986Z,102349.22
2022-10-09T08:27:23.460Z,102346.78
2022-10-09T08:29:49.953Z,102355.69
2022-10-09T08:32:16.407Z,102346.88
2022-10-09T08:34:44.779Z,102351.38
2022-10-09T08:37:11.787Z,102348.88
2022-10-09T08:39:39.583Z,102348.72
2022-10-09T08:42:07.202Z,102350.53
2022-10-09T08:44:38.210Z,102349.56
2022-10-09T08:47:42.547Z,102347.22
2022-10-09T08:50:22.870Z,102345.41
2022-10-09T08:53:11.275Z,102346.41
2022-10-09T08:55:58.634Z,102344.38
2022-10-09T08:58:31.106Z,102351.06
2022-10-09T09:01:06.189Z,102338.72
2022-10-09T09:04:20.171Z,102348.41
2022-10-09T09:07:04.186Z,102341.03
2022-10-09T09:09:51.973Z,102345.69
2022-10-09T09:12:34.587Z,102340.22
2022-10-09T09:15:30.007Z,102350.19
2022-10-09T09:17:59.333Z,102353.03
2022-10-09T09:20:27.554Z,102358.69
2022-10-09T09:22:55.416Z,102356.03
2022-10-09T09:25:26.498Z,102352.72
2022-10-09T09:27:54.174Z,102352.53
2022-10-09T09:30:27.988Z,102349.72
2022-10-09T09:33:01.323Z,102346.06
2022-10-09T09:35:29.858Z,102351.50
2022-10-09T09:37:56.433Z,102342.63
2022-10-09T09:40:36.037Z,102335.94
2022-10-09T09:43:15.947Z,102341.06
2022-10-09T09:45:43.799Z,102335.44
2022-10-09T09:48:15.602Z,102331.38
2022-10-09T09:50:50.653Z,102329.09
2022-10-09T09:53:32.602Z,102324.19
2022-10-09T09:55:59.074Z,102333.81
2022-10-09T09:58:34.806Z,102331.13
2022-10-09T10:01:03.069Z,102323.72
2022-10-09T10:03:30.748Z,102323.81
2022-10-09T10:05:57.238Z,102321.25
2022-10-09T10:08:34.474Z,102329.31
2022-10-09T10:11:03.330Z,102333.03
2022-10-09T10:13:34.639Z,102332.03
2022-10-09T10:16:01.700Z,102331.34
2022-10-09T10:18:29.449Z,102326.69
2022-10-09T10:20:57.600Z,102323.81
2022-10-09T10:23:34.627Z,102334.66
2022-10-09T10:26:05.591Z,102330.91
2022-10-09T10:28:37.636Z,102328.69
2022-10-09T10:31:06.265Z,102319.34
2022-10-09T10:33:33.769Z,102317.91
2022-10-09T10:36:01.196Z,102323.97
2022-10-09T10:38:40.671Z,102331.34
2022-10-09T10:41:26.320Z,102329.53
2022-10-09T10:44:02.346Z,102332.84
2022-10-09T10:46:32.597Z,102327.50
2022-10-09T10:48:59.899Z,102318.25
2022-10-09T10:51:47.978Z,102313.16
2022-10-09T10:54:20.314Z,102314.78
2022-10-09T10:57:05.998Z,102307.31
2022-10-09T11:00:05.306Z,102297.47
2022-10-09T11:02:42.347Z,102284.50
2022-10-09T11:05:16.762Z,102280.47
2022-10-09T11:08:04.594Z,102273.44
2022-10-09T11:10:43.630Z,102271.44
2022-10-09T11:13:32.215Z,102279.91
2022-10-09T11:16:35.540Z,102266.75
2022-10-09T11:19:09.886Z,102257.16
2022-10-09T11:21:45.152Z,102249.94
2022-10-09T11:24:28.787Z,102246.44
2022-10-09T11:27:03.678Z,102251.13
2022-10-09T11:29:37.543Z,102248.63
2022-10-09T11:32:27.192Z,102258.34
2022-10-09T11:35:12.500Z,102253.34
2022-10-09T11:37:41.800Z,102268.31
2022-10-09T11:40:20.393Z,102266.81
2022-10-09T11:42:53.000Z,102246.13
2022-10-09T11:45:29.209Z,102247.59
2022-10-09T11:48:14.288Z,102255.84
2022-10-09T11:51:01.329Z,102256.56
2022-10-09T11:53:28.711Z,102257.97
2022-10-09T11:56:07.179Z,102266.31
2022-10-09T11:58:34.554Z,102263.31
2022-10-09T12:01:22.631Z,102265.78
2022-10-09T12:04:00.740Z,102256.00
2022-10-09T12:06:28.037Z,102242.72
2022-10-09T12:09:04.867Z,102220.41
2022-10-09T12:11:32.480Z,102241.88
2022-10-09T12:14:01.043Z,102230.13
2022-10-09T12:16:38.660Z,102219.69
2022-10-09T12:19:14.173Z,102220.91
2022-10-09T12:21:48.239Z,102232.19
2022-10-09T12:24:25.818Z,102229.13
2022-10-09T12:26:55.271Z,102237.97
2022-10-09T12:29:27.846Z,102241.50
2022-10-09T12:31:57.758Z,102236.97
2022-10-09T12:34:26.780Z,102222.38
2022-10-09T12:37:04.051Z,102229.78
2022-10-09T12:39:33.939Z,102224.81
2022-10-09T12:42:00.750Z,102226.91
2022-10-09T12:44:40.103Z,102184.72
2022-10-09T12:47:09.877Z,102151.84
2022-10-09T12:49:36.698Z,102164.97
2022-10-09T12:52:03.188Z,102179.56
2022-10-09T12:54:30.866Z,102168.38
2022-10-09T12:56:58.076Z,102166.81
2022-10-09T12:59:25.820Z,102143.31
2022-10-09T13:01:56.568Z,102111.28
2022-10-09T13:04:36.688Z,102095.78
2022-10-09T13:07:07.006Z,102092.22
2022-10-09T13:09:40.095Z,102139.44
2022-10-09T13:12:07.988Z,102137.34
2022-10-09T13:14:41.263Z,102138.53
2022-10-09T13:17:24.175Z,102139.25
2022-10-09T13:19:53.177Z,102162.97
2022-10-09T13:22:29.058Z,102163.00
2022-10-09T13:24:58.329Z,102163.28
2022-10-09T13:27:31.450Z,102161.94
2022-10-09T13:30:01.059Z,102138.13
2022-10-09T13:32:27.931Z,102131.03
2022-10-09T13:34:55.141Z,102143.47
2022-10-09T13:37:23.611Z,102136.72
2022-10-09T13:39:54.010Z,102158.31
2022-10-09T13:42:20.963Z,102159.09
2022-10-09T13:44:47.468Z,102179.78
2022-10-09T13:47:13.986Z,102170.75
2022-10-09T13:49:40.705Z,102171.09
2022-10-09T13:52:07.217Z,102170.94
2022-10-09T13:54:33.685Z,102154.44
2022-10-09T13:57:00.156Z,102129.03
2022-10-09T13:59:28.605Z,102110.47
2022-10-09T14:01:55.446Z,102098.75
2022-10-09T14:04:21.995Z,102094.88
2022-10-09T14:06:48.694Z,102095.81
2022-10-09T14:09:15.419Z,102088.09
2022-10-09T14:11:42.065Z,102099.72
2022-10-09T14:14:08.625Z,102105.66
2022-10-09T14:16:35.152Z,102099.41
2022-10-09T14:19:03.534Z,102105.03
2022-10-09T14:21:30.292Z,102088.47
2022-10-09T14:24:01.414Z,102083.19
2022-10-09T14:26:28.514Z,102105.41
2022-10-09T14:28:57.902Z,102093.28
2022-10-09T14:31:24.425Z,102110.28
2022-10-09T14:34:02.156Z,102089.19
2022-10-09T14:36:29.319Z,102084.31
2022-10-09T14:38:57.033Z,102075.81
2022-10-09T14:41:24.170Z,102072.22
2022-10-09T14:43:57.474Z,102078.75
2022-10-09T14:46:28.703Z,102072.41
2022-10-09T14:49:00.402Z,102063.31
2022-10-09T14:51:27.955Z,102074.72
2022-10-09T14:54:00.790Z,102072.97
2022-10-09T14:56:27.715Z,102071.09
2022-10-09T14:58:54.395Z,102064.34
2022-10-09T15:01:22.448Z,102073.78
2022-10-09T15:03:49.408Z,102072.25
2022-10-09T15:06:23.920Z,102049.41
2022-10-09T15:08:55.753Z,102058.56
2022-10-09T15:11:22.894Z,102045.25
2022-10-09T15:13:49.471Z,102049.97
2022-10-09T15:16:16.907Z,102055.19
2022-10-09T15:18:43.762Z,102083.59
2022-10-09T15:21:16.790Z,102078.53
2022-10-09T15:23:43.328Z,102075.72
2022-10-09T15:26:10.431Z,102067.97
2022-10-09T15:28:38.049Z,102062.91
2022-10-09T15:31:06.047Z,102075.25
2022-10-09T15:33:33.195Z,102063.84
2022-10-09T15:35:59.764Z,102068.25
2022-10-09T15:38:26.405Z,102071.81
2022-10-09T15:40:55.120Z,102070.63
2022-10-09T15:43:23.440Z,102071.06
2022-10-09T15:45:53.012Z,102069.59
2022-10-09T15:48:24.010Z,102081.38
2022-10-09T15:50:53.419Z,102083.66
2022-10-09T15:53:22.388Z,102079.91
2022-10-09T15:55:53.662Z,102070.28
2022-10-09T15:58:20.583Z,102063.00
2022-10-09T16:00:49.268Z,102065.31
2022-10-09T16:03:17.358Z,102072.72
2022-10-09T16:05:49.465Z,102066.59
2022-10-09T16:08:17.529Z,102066.28
2022-10-09T16:10:48.823Z,102065.97
2022-10-09T16:13:16.471Z,102058.91
2022-10-09T16:15:44.253Z,102064.00
2022-10-09T16:18:11.019Z,102053.97
2022-10-09T16:20:39.107Z,102054.00
2022-10-09T16:23:06.448Z,102056.38
2022-10-09T16:25:33.461Z,102057.00
2022-10-09T16:28:00.122Z,102052.69
2022-10-09T16:30:27.543Z,102052.34
2022-10-09T16:32:54.107Z,102049.25
2022-10-09T16:35:21.776Z,102052.25
2022-10-09T16:37:48.364Z,102043.25
2022-10-09T16:40:14.837Z,102041.97
2022-10-09T16:42:42.345Z,102049.94
2022-10-09T16:45:09.724Z,102045.59
2022-10-09T16:47:37.740Z,102046.63
2022-10-09T16:50:05.665Z,102045.13
2022-10-09T16:52:32.642Z,102042.31
2022-10-09T16:55:00.698Z,102037.66
2022-10-09T16:57:27.768Z,102039.97
2022-10-09T16:59:54.353Z,102044.13
2022-10-09T17:02:20.866Z,102045.63
2022-10-09T17:04:47.446Z,102038.28
2022-10-09T17:07:13.992Z,102036.81
2022-10-09T17:09:41.119Z,102043.47
2022-10-09T17:12:09.709Z,102036.28
2022-10-09T17:14:37.208Z,102041.25
2022-10-09T17:17:10.929Z,102040.41
2022-10-09T17:19:38.440Z,102030.91
2022-10-09T17:22:10.601Z,102027.09
2022-10-09T17:24:37.577Z,102024.13
2022-10-09T17:27:08.876Z,102037.44
2022-10-09T17:29:38.544Z,102035.06
2022-10-09T17:32:07.132Z,102031.28
2022-10-09T17:34:33.735Z,102036.09
2022-10-09T17:37:00.498Z,102027.75
2022-10-09T17:39:27.147Z,102027.19
2022-10-09T17:41:53.912Z,102017.50
2022-10-09T17:44:22.704Z,102025.69
2022-10-09T17:46:54.032Z,102026.75
2022-10-09T17:49:22.705Z,102016.66
2022-10-09T17:51:52.394Z,102010.44
2022-10-09T17:54:19.011Z,102020.72
2022-10-09T17:56:45.475Z,102020.38
2022-10-09T17:59:12.882Z,102010.31
2022-10-09T18:01:39.897Z,102012.19
2022-10-09T18:04:07.525Z,102006.25
2022-10-09T18:06:46.213Z,102001.78
2022-10-09T18:09:13.894Z,102003.25
2022-10-09T18:11:40.745Z,101993.13
2022-10-09T18:14:07.373Z,101997.13
2022-10-09T18:16:36.854Z,101997.34
2022-10-09T18:19:18.436Z,101993.94
2022-10-09T18:21:46.734Z,101992.03
2022-10-09T18:24:14.397Z,101993.34
2022-10-09T18:26:41.550Z,101991.69
2022-10-09T18:29:08.060Z,101992.53
2022-10-09T18:31:35.027Z,101986.53
2022-10-09T18:34:01.712Z,101980.47
2022-10-09T18:36:34.207Z,101982.56
2022-10-09T18:39:09.479Z,101980.09
2022-10-09T18:41:36.853Z,101987.13
2022-10-09T18:44:04.428Z,101977.03
2022-10-09T18:46:36.913Z,101990.38
2022-10-09T18:49:09.189Z,101986.81
2022-10-09T18:51:37.955Z,101981.59
2022-10-09T18:54:05.770Z,101982.34
2022-10-09T18:56:33.498Z,101973.88
2022-10-09T18:59:01.784Z,101974.84
2022-10-09T19:01:28.892Z,101970.28
2022-10-09T19:03:55.412Z,101956.94
2022-10-09T19:06:23.083Z,101949.22
2022-10-09T19:08:49.636Z,101962.38
2022-10-09T19:11:16.201Z,101949.06
2022-10-09T19:13:43.710Z,101946.75
2022-10-09T19:16:10.557Z,101939.06
2022-10-09T19:18:39.576Z,101940.31
2022-10-09T19:21:06.281Z,101942.72
2022-10-09T19:23:34.908Z,101938.56
2022-10-09T19:26:04.302Z,101936.91
2022-10-09T19:28:32.588Z,101937.34
2022-10-09T19:31:02.428Z,101934.47
2022-10-09T19:33:29.304Z,101926.25
2022-10-09T19:35:56.410Z,101927.03
2022-10-09T19:38:23.425Z,101926.44
2022-10-09T19:40:50.727Z,101920.44
2022-10-09T19:43:18.414Z,101922.53
2022-10-09T19:45:45.113Z,101925.75
2022-10-09T19:48:11.583Z,101924.41
2022-10-09T19:50:44.828Z,101918.72
2022-10-09T19:53:11.621Z,101917.16
2022-10-09T19:55:38.153Z,101918.19
2022-10-09T19:58:04.743Z,101918.03
2022-10-09T20:00:31.195Z,101910.09
2022-10-09T20:02:57.686Z,101906.63
2022-10-09T20:05:24.238Z,101904.78
2022-10-09T20:07:50.703Z,101908.53
2022-10-09T20:10:17.200Z,101905.88
2022-10-09T20:12:43.846Z,101897.53
2022-10-09T20:15:10.369Z,101902.38
2022-10-09T20:17:37.054Z,101894.88
2022-10-09T20:20:06.994Z,101894.06
2022-10-09T20:22:33.500Z,101885.94
2022-10-09T20:25:00.132Z,101887.06
2022-10-09T20:27:26.608Z,101877.03
2022-10-09T20:29:53.919Z,101876.47
2022-10-09T20:32:20.860Z,101869.72
2022-10-09T20:34:48.341Z,101874.56
2022-10-09T20:37:14.801Z,101869.84
2022-10-09T20:39:41.244Z,101864.84
2022-10-09T20:42:07.945Z,101857.59
2022-10-09T20:44:34.467Z,101864.56
2022-10-09T20:47:01.982Z,101868.44
2022-10-09T20:49:28.677Z,101866.53
2022-10-09T20:51:59.249Z,101862.06
2022-10-09T20:54:27.520Z,101864.84
2022-10-09T20:56:54.409Z,101860.94
2022-10-09T20:59:21.342Z,101850.41
2022-10-09T21:01:49.055Z,101851.59
2022-10-09T21:04:21.792Z,101851.22
2022-10-09T21:06:48.601Z,101842.69
2022-10-09T21:09:15.050Z,101842.59
2022-10-09T21:11:41.815Z,101837.09
2022-10-09T21:14:10.438Z,101830.72
2022-10-09T21:16:37.049Z,101829.84
2022-10-09T21:19:04.861Z,101827.63
2022-10-09T21:21:31.800Z,101819.25
2022-10-09T21:23:59.497Z,101828.31
2022-10-09T21:26:28.051Z,101822.50
2022-10-09T21:28:59.243Z,101817.09
2022-10-09T21:31:28.288Z,101819.03
2022-10-09T21:33:55.293Z,101806.94
2022-10-09T21:36:55.871Z,101816.69
2022-10-09T21:39:27.427Z,101803.47
2022-10-09T21:41:54.477Z,101807.13
2022-10-09T21:44:21.064Z,101799.16
2022-10-09T21:46:48.016Z,101795.44
2022-10-09T21:49:23.084Z,101797.38
2022-10-09T21:51:49.574Z,101794.88
2022-10-09T21:54:16.510Z,101783.16
2022-10-09T21:56:43.061Z,101780.25
2022-10-09T21:59:09.584Z,101783.47
2022-10-09T22:01:36.157Z,101779.53
2022-10-09T22:04:02.700Z,101777.28
2022-10-09T22:06:29.211Z,101765.06
2022-10-09T22:08:56.069Z,101763.25
2022-10-09T22:11:22.614Z,101760.38
2022-10-09T22:13:49.887Z,101759.81
2022-10-09T22:16:16.401Z,101759.53
2022-10-09T22:18:43.077Z,101756.38
2022-10-09T22:21:14.623Z,101733.00
2022-10-09T22:23:41.182Z,101736.72
2022-10-09T22:26:15.235Z,101732.81
2022-10-09T22:28:41.770Z,101725.09
2022-10-09T22:31:15.762Z,101717.03
2022-10-09T22:33:42.974Z,101717.53
2022-10-09T22:36:16.343Z,101720.75
2022-10-09T22:38:43.871Z,101714.59
2022-10-09T22:41:12.482Z,101701.66
2022-10-09T22:43:40.723Z,101704.63
2022-10-09T22:46:12.018Z,101697.66
2022-10-09T22:48:38.829Z,101701.66
2022-10-09T22:51:07.240Z,101694.63
2022-10-09T22:53:34.458Z,101696.59
2022-10-09T22:56:01.621Z,101696.78
2022-10-09T22:58:28.144Z,101685.00
2022-10-09T23:00:55.506Z,101680.38
2022-10-09T23:03:21.960Z,101675.81
2022-10-09T23:05:48.411Z,101675.66
2022-10-09T23:08:15.079Z,101672.44
2022-10-09T23:10:41.585Z,101668.34
2022-10-09T23:13:08.050Z,101676.94
2022-10-09T23:15:35.967Z,101664.34
2022-10-09T23:18:06.285Z,101664.06
2022-10-09T23:20:36.309Z,101660.84
2022-10-09T23:23:02.851Z,101653.47
2022-10-09T23:25:29.318Z,101649.41
2022-10-09T23:27:55.779Z,101649.41
2022-10-09T23:30:22.230Z,101648.16
2022-10-09T23:32:52.021Z,101646.56
2022-10-09T23:35:18.593Z,101645.50
2022-10-09T23:37:45.046Z,101641.16
2022-10-09T23:40:11.493Z,101644.44
2022-10-09T23:42:37.959Z,101641.44
2022-10-09T23:45:10.443Z,101633.88
2022-10-09T23:47:37.100Z,101630.72
2022-10-09T23:50:05.114Z,101628.78
2022-10-09T23:52:31.604Z,101630.66
2022-10-09T23:54:58.038Z,101628.97
2022-10-09T23:57:24.529Z,101622.81
2022-10-09T23:59:51.047Z,101620.84
